sensor_id;sensor_type;location;lat;lon;timestamp;pressure;altitude;pressure_sealevel;temperature;humidity
36932;BME280;22847;42.654;23.370;2023-02-28T00:00:00;95144.84;;;9.50;80.50
36932;BME280;22847;42.654;23.370;2023-02-28T00:02:26;95139.84;;;9.47;80.43
36932;BME280;22847;42.654;23.370;2023-02-28T00:04:51;95144.47;;;9.22;81.29
36932;BME280;22847;42.654;23.370;2023-02-28T00:07:27;95018.47;;;8.08;83.18
36932;BME280;22847;42.654;23.370;2023-02-28T00:09:53;95144.09;;;9.27;81.85
36932;BME280;22847;42.654;23.370;2023-02-28T00:12:18;95141.31;;;9.39;81.44
36932;BME280;22847;42.654;23.370;2023-02-28T00:14:43;94905.78;;;7.35;83.77
36932;BME280;22847;42.654;23.370;2023-02-28T00:17:09;95022.47;;;8.13;83.61
36932;BME280;22847;42.654;23.370;2023-02-28T00:19:34;94969.03;;;8.10;82.34
36932;BME280;22847;42.654;23.370;2023-02-28T00:21:59;95146.56;;;9.28;82.01
36932;BME280;22847;42.654;23.370;2023-02-28T00:24:25;95157.31;;;9.03;83.47
36932;BME280;22847;42.654;23.370;2023-02-28T00:26:50;95188.19;;;9.28;82.44
36932;BME280;22847;42.654;23.370;2023-02-28T00:29:15;95137.19;;;8.73;84.25
36932;BME280;22847;42.654;23.370;2023-02-28T00:31:41;95155.63;;;9.13;82.52
36932;BME280;22847;42.654;23.370;2023-02-28T00:34:06;94877.72;;;7.51;81.71
36932;BME280;22847;42.654;23.370;2023-02-28T00:36:32;95132.69;;;9.18;82.07
36932;BME280;22847;42.654;23.370;2023-02-28T00:38:57;95159.75;;;9.16;82.67
36932;BME280;22847;42.654;23.370;2023-02-28T00:41:22;95114.81;;;8.05;87.42
36932;BME280;22847;42.654;23.370;2023-02-28T00:43:48;95136.53;;;8.92;84.71
36932;BME280;22847;42.654;23.370;2023-02-28T00:46:13;95146.25;;;9.22;82.74
36932;BME280;22847;42.654;23.370;2023-02-28T00:48:38;95154.41;;;9.49;81.60
36932;BME280;22847;42.654;23.370;2023-02-28T00:51:04;95144.47;;;9.22;82.32
36932;BME280;22847;42.654;23.370;2023-02-28T00:53:30;95128.34;;;9.08;82.73
36932;BME280;22847;42.654;23.370;2023-02-28T00:55:55;95127.69;;;9.15;81.96
36932;BME280;22847;42.654;23.370;2023-02-28T00:58:20;94935.41;;;7.97;81.69
36932;BME280;22847;42.654;23.370;2023-02-28T01:00:46;94984.03;;;8.49;80.96
36932;BME280;22847;42.654;23.370;2023-02-28T01:03:17;95108.06;;;9.22;80.59
36932;BME280;22847;42.654;23.370;2023-02-28T01:05:43;95149.59;;;8.81;83.28
36932;BME280;22847;42.654;23.370;2023-02-28T01:08:08;95128.97;;;9.00;82.49
36932;BME280;22847;42.654;23.370;2023-02-28T01:10:34;94961.41;;;8.29;80.78
36932;BME280;22847;42.654;23.370;2023-02-28T01:13:01;95117.19;;;9.37;79.68
36932;BME280;22847;42.654;23.370;2023-02-28T01:15:27;95165.38;;;9.53;79.18
36932;BME280;22847;42.654;23.370;2023-02-28T01:17:52;95147.84;;;9.55;79.11
36932;BME280;22847;42.654;23.370;2023-02-28T01:20:18;95156.31;;;9.68;78.11
36932;BME280;22847;42.654;23.370;2023-02-28T01:22:43;95116.22;;;9.59;77.96
36932;BME280;22847;42.654;23.370;2023-02-28T01:25:09;95139.56;;;9.40;79.55
36932;BME280;22847;42.654;23.370;2023-02-28T01:27:34;95187.41;;;9.49;79.08
36932;BME280;22847;42.654;23.370;2023-02-28T01:30:01;95005.31;;;8.43;79.52
36932;BME280;22847;42.654;23.370;2023-02-28T01:32:26;95080.22;;;9.02;79.78
36932;BME280;22847;42.654;23.370;2023-02-28T01:34:52;95165.88;;;9.47;79.14
36932;BME280;22847;42.654;23.370;2023-02-28T01:37:17;95124.19;;;9.05;79.96
36932;BME280;22847;42.654;23.370;2023-02-28T01:39:43;95075.19;;;8.69;80.51
36932;BME280;22847;42.654;23.370;2023-02-28T01:42:09;94951.16;;;8.17;79.73
36932;BME280;22847;42.654;23.370;2023-02-28T01:47:19;95138.34;;;9.65;78.16
36932;BME280;22847;42.654;23.370;2023-02-28T01:49:45;95127.31;;;9.72;77.97
36932;BME280;22847;42.654;23.370;2023-02-28T01:52:11;95003.22;;;8.90;77.57
36932;BME280;22847;42.654;23.370;2023-02-28T01:54:45;95147.03;;;9.75;77.56
36932;BME280;22847;42.654;23.370;2023-02-28T01:57:16;95146.28;;;9.63;77.76
36932;BME280;22847;42.654;23.370;2023-02-28T01:59:52;94943.56;;;8.25;78.25
36932;BME280;22847;42.654;23.370;2023-02-28T02:02:21;94949.72;;;7.92;79.71
36932;BME280;22847;42.654;23.370;2023-02-28T02:05:07;95113.91;;;9.35;78.73
36932;BME280;22847;42.654;23.370;2023-02-28T02:07:39;95154.78;;;9.45;78.31
36932;BME280;22847;42.654;23.370;2023-02-28T02:10:19;95106.28;;;9.44;77.86
36932;BME280;22847;42.654;23.370;2023-02-28T02:18:13;95136.31;;;8.95;81.75
36932;BME280;22847;42.654;23.370;2023-02-28T02:21:25;95139.75;;;9.16;80.85
36932;BME280;22847;42.654;23.370;2023-02-28T02:35:56;95135.22;;;9.71;78.30
36932;BME280;22847;42.654;23.370;2023-02-28T02:38:36;95132.25;;;9.75;78.39
36932;BME280;22847;42.654;23.370;2023-02-28T02:44:26;95104.88;;;9.39;78.87
36932;BME280;22847;42.654;23.370;2023-02-28T02:47:04;95164.88;;;9.79;78.28
36932;BME280;22847;42.654;23.370;2023-02-28T02:49:33;95072.47;;;9.23;77.64
36932;BME280;22847;42.654;23.370;2023-02-28T02:52:04;94940.66;;;8.18;79.24
36932;BME280;22847;42.654;23.370;2023-02-28T02:54:34;95179.34;;;9.52;79.22
36932;BME280;22847;42.654;23.370;2023-02-28T02:57:05;95153.06;;;9.55;79.41
36932;BME280;22847;42.654;23.370;2023-02-28T02:59:36;95112.75;;;9.49;78.64
36932;BME280;22847;42.654;23.370;2023-02-28T03:02:05;95162.03;;;9.62;79.12
36932;BME280;22847;42.654;23.370;2023-02-28T03:04:36;95090.47;;;9.35;78.02
36932;BME280;22847;42.654;23.370;2023-02-28T03:07:05;95184.13;;;9.88;77.91
36932;BME280;22847;42.654;23.370;2023-02-28T03:09:33;95172.75;;;9.68;77.90
36932;BME280;22847;42.654;23.370;2023-02-28T03:11:59;95180.31;;;9.71;77.96
36932;BME280;22847;42.654;23.370;2023-02-28T03:14:56;95139.03;;;9.46;78.58
36932;BME280;22847;42.654;23.370;2023-02-28T03:30:03;95235.19;;;9.16;80.73
36932;BME280;22847;42.654;23.370;2023-02-28T03:32:38;95198.31;;;9.11;80.94
36932;BME280;22847;42.654;23.370;2023-02-28T03:37:36;95202.53;;;9.55;78.81
36932;BME280;22847;42.654;23.370;2023-02-28T03:40:12;95161.28;;;8.75;81.11
36932;BME280;22847;42.654;23.370;2023-02-28T03:42:43;95003.91;;;7.74;81.41
36932;BME280;22847;42.654;23.370;2023-02-28T03:45:30;95050.47;;;7.98;82.03
36932;BME280;22847;42.654;23.370;2023-02-28T03:48:08;95170.41;;;8.47;82.98
36932;BME280;22847;42.654;23.370;2023-02-28T03:50:42;95207.34;;;8.95;82.75
36932;BME280;22847;42.654;23.370;2023-02-28T03:53:34;95212.97;;;9.12;81.39
36932;BME280;22847;42.654;23.370;2023-02-28T03:56:19;95240.69;;;8.90;81.84
36932;BME280;22847;42.654;23.370;2023-02-28T03:59:12;95217.66;;;8.75;82.55
36932;BME280;22847;42.654;23.370;2023-02-28T04:01:41;95219.84;;;9.02;81.77
36932;BME280;22847;42.654;23.370;2023-02-28T04:04:11;94985.84;;;7.73;81.10
36932;BME280;22847;42.654;23.370;2023-02-28T04:06:38;95213.22;;;9.09;80.60
36932;BME280;22847;42.654;23.370;2023-02-28T04:09:06;95215.00;;;8.97;81.06
36932;BME280;22847;42.654;23.370;2023-02-28T04:11:45;95187.41;;;8.18;84.04
36932;BME280;22847;42.654;23.370;2023-02-28T04:14:14;95001.28;;;6.72;87.69
36932;BME280;22847;42.654;23.370;2023-02-28T04:16:41;95195.34;;;8.39;85.23
36932;BME280;22847;42.654;23.370;2023-02-28T04:19:08;95203.50;;;8.57;83.89
36932;BME280;22847;42.654;23.370;2023-02-28T04:21:45;95193.31;;;8.76;83.34
36932;BME280;22847;42.654;23.370;2023-02-28T04:24:13;95009.88;;;7.19;84.71
36932;BME280;22847;42.654;23.370;2023-02-28T04:26:44;95163.94;;;8.42;83.49
36932;BME280;22847;42.654;23.370;2023-02-28T04:29:11;95211.75;;;8.73;82.99
36932;BME280;22847;42.654;23.370;2023-02-28T04:31:37;95210.75;;;8.96;81.50
36932;BME280;22847;42.654;23.370;2023-02-28T04:34:03;95164.75;;;8.42;82.23
36932;BME280;22847;42.654;23.370;2023-02-28T04:36:28;95186.22;;;8.78;81.13
36932;BME280;22847;42.654;23.370;2023-02-28T04:38:54;95209.16;;;8.28;84.25
36932;BME280;22847;42.654;23.370;2023-02-28T04:41:21;95159.09;;;8.37;83.01
36932;BME280;22847;42.654;23.370;2023-02-28T04:43:48;95226.84;;;8.01;85.37
36932;BME280;22847;42.654;23.370;2023-02-28T04:46:13;95186.22;;;8.22;84.46
36932;BME280;22847;42.654;23.370;2023-02-28T04:48:39;95229.25;;;8.48;84.11
36932;BME280;22847;42.654;23.370;2023-02-28T04:51:12;95230.63;;;8.19;85.65
36932;BME280;22847;42.654;23.370;2023-02-28T04:53:39;95037.16;;;6.90;86.16
36932;BME280;22847;42.654;23.370;2023-02-28T04:56:07;95085.16;;;7.52;85.07
36932;BME280;22847;42.654;23.370;2023-02-28T04:58:33;95228.78;;;8.66;84.15
36932;BME280;22847;42.654;23.370;2023-02-28T05:01:07;95177.31;;;8.37;83.27
36932;BME280;22847;42.654;23.370;2023-02-28T05:03:38;95244.38;;;8.77;82.28
36932;BME280;22847;42.654;23.370;2023-02-28T05:06:06;95219.31;;;8.65;82.75
36932;BME280;22847;42.654;23.370;2023-02-28T05:08:31;95186.88;;;8.37;82.45
36932;BME280;22847;42.654;23.370;2023-02-28T05:10:57;95062.94;;;7.26;84.63
36932;BME280;22847;42.654;23.370;2023-02-28T05:13:22;95237.50;;;8.65;83.54
36932;BME280;22847;42.654;23.370;2023-02-28T05:15:48;95202.91;;;8.64;82.24
36932;BME280;22847;42.654;23.370;2023-02-28T05:18:13;95059.72;;;7.11;84.09
36932;BME280;22847;42.654;23.370;2023-02-28T05:20:39;95236.22;;;8.37;84.25
36932;BME280;22847;42.654;23.370;2023-02-28T05:23:04;95212.72;;;8.38;82.34
36932;BME280;22847;42.654;23.370;2023-02-28T05:25:29;95043.06;;;7.60;81.16
36932;BME280;22847;42.654;23.370;2023-02-28T05:27:55;95214.47;;;8.27;83.37
36932;BME280;22847;42.654;23.370;2023-02-28T05:30:20;95253.00;;;8.77;82.94
36932;BME280;22847;42.654;23.370;2023-02-28T05:32:50;95069.03;;;7.82;81.17
36932;BME280;22847;42.654;23.370;2023-02-28T05:35:16;95101.34;;;8.23;80.29
36932;BME280;22847;42.654;23.370;2023-02-28T05:37:41;95276.97;;;9.03;80.97
36932;BME280;22847;42.654;23.370;2023-02-28T05:40:07;95089.06;;;8.14;80.11
36932;BME280;22847;42.654;23.370;2023-02-28T05:42:35;95087.78;;;8.19;79.11
36932;BME280;22847;42.654;23.370;2023-02-28T05:45:01;95264.34;;;9.41;78.40
36932;BME280;22847;42.654;23.370;2023-02-28T05:47:26;95237.34;;;9.11;78.54
36932;BME280;22847;42.654;23.370;2023-02-28T05:49:52;95177.66;;;8.98;78.16
36932;BME280;22847;42.654;23.370;2023-02-28T05:52:17;95272.59;;;9.58;77.90
36932;BME280;22847;42.654;23.370;2023-02-28T05:54:43;95269.78;;;9.50;77.99
36932;BME280;22847;42.654;23.370;2023-02-28T05:57:08;95256.22;;;9.35;78.10
36932;BME280;22847;42.654;23.370;2023-02-28T05:59:33;95277.00;;;8.59;82.26
36932;BME280;22847;42.654;23.370;2023-02-28T06:01:59;95283.69;;;9.17;80.03
36932;BME280;22847;42.654;23.370;2023-02-28T06:04:24;95304.34;;;9.29;79.35
36932;BME280;22847;42.654;23.370;2023-02-28T06:06:50;95224.31;;;9.11;79.00
36932;BME280;22847;42.654;23.370;2023-02-28T06:09:17;95231.03;;;9.24;78.53
36932;BME280;22847;42.654;23.370;2023-02-28T06:11:42;95279.09;;;9.09;80.93
36932;BME280;22847;42.654;23.370;2023-02-28T06:14:14;95071.81;;;8.13;79.52
36932;BME280;22847;42.654;23.370;2023-02-28T06:16:40;95294.34;;;9.57;78.67
36932;BME280;22847;42.654;23.370;2023-02-28T06:19:06;95273.63;;;9.66;78.79
36932;BME280;22847;42.654;23.370;2023-02-28T06:21:32;95079.16;;;8.30;78.81
36932;BME280;22847;42.654;23.370;2023-02-28T06:23:57;95275.19;;;9.58;78.42
36932;BME280;22847;42.654;23.370;2023-02-28T06:26:24;95272.44;;;9.16;80.34
36932;BME280;22847;42.654;23.370;2023-02-28T06:28:49;95241.38;;;8.92;81.37
36932;BME280;22847;42.654;23.370;2023-02-28T06:31:16;95240.56;;;8.92;80.75
36932;BME280;22847;42.654;23.370;2023-02-28T06:33:43;95198.00;;;8.93;79.87
36932;BME280;22847;42.654;23.370;2023-02-28T06:36:10;95081.03;;;8.39;78.68
36932;BME280;22847;42.654;23.370;2023-02-28T06:38:37;95244.19;;;9.01;80.42
36932;BME280;22847;42.654;23.370;2023-02-28T06:41:03;95276.50;;;8.98;81.76
36932;BME280;22847;42.654;23.370;2023-02-28T06:43:30;95297.97;;;9.33;80.71
36932;BME280;22847;42.654;23.370;2023-02-28T06:45:58;95291.66;;;8.82;82.96
36932;BME280;22847;42.654;23.370;2023-02-28T06:48:25;95307.22;;;8.48;84.33
36932;BME280;22847;42.654;23.370;2023-02-28T06:50:51;95274.06;;;8.17;86.14
36932;BME280;22847;42.654;23.370;2023-02-28T06:53:16;95289.75;;;8.16;86.05
36932;BME280;22847;42.654;23.370;2023-02-28T06:55:42;95330.59;;;8.37;86.31
36932;BME280;22847;42.654;23.370;2023-02-28T06:58:08;95301.75;;;8.29;87.10
36932;BME280;22847;42.654;23.370;2023-02-28T07:00:43;95329.88;;;8.35;87.15
36932;BME280;22847;42.654;23.370;2023-02-28T07:03:09;95302.25;;;8.45;86.69
36932;BME280;22847;42.654;23.370;2023-02-28T07:05:36;95227.03;;;8.55;84.28
36932;BME280;22847;42.654;23.370;2023-02-28T07:08:03;95307.44;;;9.23;82.54
36932;BME280;22847;42.654;23.370;2023-02-28T07:10:29;95330.41;;;8.96;83.23
36932;BME280;22847;42.654;23.370;2023-02-28T07:12:54;95297.88;;;9.13;81.95
36932;BME280;22847;42.654;23.370;2023-02-28T07:15:20;95300.59;;;9.22;81.64
36932;BME280;22847;42.654;23.370;2023-02-28T07:17:45;95288.47;;;9.44;80.76
36932;BME280;22847;42.654;23.370;2023-02-28T07:20:11;95288.09;;;8.72;82.44
36932;BME280;22847;42.654;23.370;2023-02-28T07:22:37;95102.41;;;7.76;82.91
36932;BME280;22847;42.654;23.370;2023-02-28T07:25:04;95269.22;;;8.13;85.49
36932;BME280;22847;42.654;23.370;2023-02-28T07:27:30;95293.84;;;7.96;89.65
36932;BME280;22847;42.654;23.370;2023-02-28T07:29:55;95298.22;;;8.30;88.42
36932;BME280;22847;42.654;23.370;2023-02-28T07:32:21;95306.28;;;8.83;85.26
36932;BME280;22847;42.654;23.370;2023-02-28T07:34:46;95098.41;;;7.83;84.31
36932;BME280;22847;42.654;23.370;2023-02-28T07:37:12;95300.13;;;9.06;84.58
36932;BME280;22847;42.654;23.370;2023-02-28T07:39:37;95286.88;;;9.63;82.50
36932;BME280;22847;42.654;23.370;2023-02-28T07:42:06;95320.22;;;10.01;80.87
36932;BME280;22847;42.654;23.370;2023-02-28T07:44:34;95299.09;;;9.83;81.19
36932;BME280;22847;42.654;23.370;2023-02-28T07:47:00;95120.91;;;9.24;79.50
36932;BME280;22847;42.654;23.370;2023-02-28T07:49:25;95066.94;;;8.84;79.95
36932;BME280;22847;42.654;23.370;2023-02-28T07:51:51;95285.06;;;10.27;80.15
36932;BME280;22847;42.654;23.370;2023-02-28T07:54:16;95290.34;;;10.58;79.05
36932;BME280;22847;42.654;23.370;2023-02-28T07:56:42;95067.06;;;9.35;78.52
36932;BME280;22847;42.654;23.370;2023-02-28T07:59:07;95131.63;;;9.62;78.64
36932;BME280;22847;42.654;23.370;2023-02-28T08:01:32;95281.97;;;10.64;79.07
36932;BME280;22847;42.654;23.370;2023-02-28T08:03:58;95291.03;;;10.60;78.86
36932;BME280;22847;42.654;23.370;2023-02-28T08:06:24;95291.38;;;10.76;78.70
36932;BME280;22847;42.654;23.370;2023-02-28T08:08:52;95279.94;;;10.67;79.07
36932;BME280;22847;42.654;23.370;2023-02-28T08:11:18;95221.50;;;10.40;79.44
36932;BME280;22847;42.654;23.370;2023-02-28T08:13:44;95176.75;;;10.35;78.67
36932;BME280;22847;42.654;23.370;2023-02-28T08:16:11;95251.22;;;10.37;80.62
36932;BME280;22847;42.654;23.370;2023-02-28T08:18:36;95115.22;;;9.30;83.08
36932;BME280;22847;42.654;23.370;2023-02-28T08:21:11;95163.13;;;10.10;82.46
36932;BME280;22847;42.654;23.370;2023-02-28T08:23:36;95288.19;;;11.03;82.41
36932;BME280;22847;42.654;23.370;2023-02-28T08:26:02;95302.41;;;11.19;81.00
36932;BME280;22847;42.654;23.370;2023-02-28T08:28:28;95288.59;;;11.08;81.68
36932;BME280;22847;42.654;23.370;2023-02-28T08:30:54;95114.53;;;9.49;83.21
36932;BME280;22847;42.654;23.370;2023-02-28T08:33:20;95264.47;;;10.85;82.23
36932;BME280;22847;42.654;23.370;2023-02-28T08:35:45;95297.59;;;10.34;86.04
36932;BME280;22847;42.654;23.370;2023-02-28T08:38:11;95236.03;;;10.01;86.25
36932;BME280;22847;42.654;23.370;2023-02-28T08:40:36;95148.25;;;9.71;84.79
36932;BME280;22847;42.654;23.370;2023-02-28T08:43:02;95286.78;;;10.89;83.61
36932;BME280;22847;42.654;23.370;2023-02-28T08:45:27;95307.97;;;11.05;80.92
36932;BME280;22847;42.654;23.370;2023-02-28T08:47:54;95289.94;;;11.42;81.07
36932;BME280;22847;42.654;23.370;2023-02-28T08:50:20;95292.44;;;11.63;79.02
36932;BME280;22847;42.654;23.370;2023-02-28T08:52:45;95286.13;;;11.56;78.47
36932;BME280;22847;42.654;23.370;2023-02-28T08:55:11;95281.34;;;11.71;78.18
36932;BME280;22847;42.654;23.370;2023-02-28T08:57:36;95256.13;;;11.41;78.83
36932;BME280;22847;42.654;23.370;2023-02-28T09:00:03;95295.34;;;11.10;81.38
36932;BME280;22847;42.654;23.370;2023-02-28T09:02:30;95314.69;;;11.57;79.28
36932;BME280;22847;42.654;23.370;2023-02-28T09:04:56;95301.38;;;11.51;78.80
36932;BME280;22847;42.654;23.370;2023-02-28T09:07:21;95302.50;;;11.68;79.07
36932;BME280;22847;42.654;23.370;2023-02-28T09:09:47;95161.25;;;10.83;78.06
36932;BME280;22847;42.654;23.370;2023-02-28T09:12:24;95291.00;;;11.21;79.75
36932;BME280;22847;42.654;23.370;2023-02-28T09:14:50;95284.00;;;11.21;80.19
36932;BME280;22847;42.654;23.370;2023-02-28T09:17:15;95291.16;;;11.29;79.17
36932;BME280;22847;42.654;23.370;2023-02-28T09:19:41;95277.66;;;11.92;77.58
36932;BME280;22847;42.654;23.370;2023-02-28T09:22:07;95230.53;;;10.66;81.48
36932;BME280;22847;42.654;23.370;2023-02-28T09:24:33;95310.88;;;11.52;80.21
36932;BME280;22847;42.654;23.370;2023-02-28T09:26:58;95255.06;;;10.94;80.73
36932;BME280;22847;42.654;23.370;2023-02-28T09:29:23;95268.63;;;11.28;80.17
36932;BME280;22847;42.654;23.370;2023-02-28T09:31:49;95281.78;;;11.85;77.07
36932;BME280;22847;42.654;23.370;2023-02-28T09:34:15;95292.22;;;11.85;77.25
36932;BME280;22847;42.654;23.370;2023-02-28T09:36:42;95284.38;;;11.76;77.57
36932;BME280;22847;42.654;23.370;2023-02-28T09:39:08;95281.38;;;11.99;76.18
36932;BME280;22847;42.654;23.370;2023-02-28T09:41:39;95315.88;;;11.74;77.06
36932;BME280;22847;42.654;23.370;2023-02-28T09:44:17;94970.84;;;10.04;75.92
36932;BME280;22847;42.654;23.370;2023-02-28T09:46:48;95281.38;;;11.90;76.66
36932;BME280;22847;42.654;23.370;2023-02-28T09:49:20;95279.00;;;12.35;74.99
36932;BME280;22847;42.654;23.370;2023-02-28T09:51:59;95287.94;;;12.42;73.56
36932;BME280;22847;42.654;23.370;2023-02-28T09:54:29;95124.78;;;11.21;74.97
36932;BME280;22847;42.654;23.370;2023-02-28T09:57:01;95255.31;;;11.40;77.95
36932;BME280;22847;42.654;23.370;2023-02-28T09:59:50;95082.69;;;10.57;77.86
36932;BME280;22847;42.654;23.370;2023-02-28T10:05:14;95275.75;;;11.75;77.16
36932;BME280;22847;42.654;23.370;2023-02-28T10:07:56;95257.25;;;11.48;76.93
36932;BME280;22847;42.654;23.370;2023-02-28T10:10:36;95091.38;;;10.27;78.46
36932;BME280;22847;42.654;23.370;2023-02-28T10:13:12;95252.72;;;11.50;76.89
36932;BME280;22847;42.654;23.370;2023-02-28T10:15:41;95083.94;;;10.62;76.76
36932;BME280;22847;42.654;23.370;2023-02-28T10:18:12;95074.22;;;10.24;76.90
36932;BME280;22847;42.654;23.370;2023-02-28T10:20:40;95191.78;;;11.11;77.27
36932;BME280;22847;42.654;23.370;2023-02-28T10:23:21;95286.28;;;11.64;76.46
36932;BME280;22847;42.654;23.370;2023-02-28T10:26:12;95266.63;;;11.98;75.64
36932;BME280;22847;42.654;23.370;2023-02-28T10:28:38;95252.72;;;11.59;76.25
36932;BME280;22847;42.654;23.370;2023-02-28T10:31:04;95291.00;;;11.99;75.73
36932;BME280;22847;42.654;23.370;2023-02-28T10:33:33;95221.00;;;11.74;74.91
36932;BME280;22847;42.654;23.370;2023-02-28T10:36:03;95106.47;;;10.92;75.81
36932;BME280;22847;42.654;23.370;2023-02-28T10:38:35;95240.91;;;12.69;73.18
36932;BME280;22847;42.654;23.370;2023-02-28T10:41:10;95241.44;;;13.37;68.33
36932;BME280;22847;42.654;23.370;2023-02-28T10:43:39;95209.41;;;13.61;67.10
36932;BME280;22847;42.654;23.370;2023-02-28T10:51:04;95223.13;;;12.73;70.06
36932;BME280;22847;42.654;23.370;2023-02-28T10:58:51;95205.75;;;12.81;69.76
36932;BME280;22847;42.654;23.370;2023-02-28T11:01:24;95204.66;;;12.74;70.69
36932;BME280;22847;42.654;23.370;2023-02-28T11:03:50;95190.00;;;12.91;69.66
36932;BME280;22847;42.654;23.370;2023-02-28T11:06:22;95197.72;;;12.56;70.50
36932;BME280;22847;42.654;23.370;2023-02-28T11:08:51;95097.09;;;11.86;70.66
36932;BME280;22847;42.654;23.370;2023-02-28T11:11:18;95233.28;;;12.29;71.46
36932;BME280;22847;42.654;23.370;2023-02-28T11:13:46;95159.53;;;12.63;69.95
36932;BME280;22847;42.654;23.370;2023-02-28T11:16:13;95179.00;;;12.60;70.29
36932;BME280;22847;42.654;23.370;2023-02-28T11:21:20;95177.50;;;13.12;69.29
36932;BME280;22847;42.654;23.370;2023-02-28T11:23:47;95197.44;;;13.58;67.89
36932;BME280;22847;42.654;23.370;2023-02-28T11:26:14;95201.38;;;13.27;67.07
36932;BME280;22847;42.654;23.370;2023-02-28T11:28:41;95186.16;;;12.58;70.03
36932;BME280;22847;42.654;23.370;2023-02-28T11:36:18;95155.00;;;12.28;70.71
36932;BME280;22847;42.654;23.370;2023-02-28T11:38:44;95170.78;;;12.45;70.56
36932;BME280;22847;42.654;23.370;2023-02-28T11:41:17;95226.16;;;12.22;72.24
36932;BME280;22847;42.654;23.370;2023-02-28T11:44:17;95189.22;;;12.44;72.70
36932;BME280;22847;42.654;23.370;2023-02-28T11:46:49;95125.47;;;12.18;70.93
36932;BME280;22847;42.654;23.370;2023-02-28T12:00:00;95148.50;;;12.96;69.15
36932;BME280;22847;42.654;23.370;2023-02-28T12:02:35;95168.00;;;13.02;68.80
36932;BME280;22847;42.654;23.370;2023-02-28T12:07:49;95203.03;;;13.01;69.21
36932;BME280;22847;42.654;23.370;2023-02-28T12:10:48;94959.31;;;11.32;70.77
36932;BME280;22847;42.654;23.370;2023-02-28T12:13:25;95131.13;;;12.13;71.80
36932;BME280;22847;42.654;23.370;2023-02-28T12:29:15;94969.38;;;11.17;70.58
36932;BME280;22847;42.654;23.370;2023-02-28T12:31:47;95130.09;;;12.33;70.24
36932;BME280;22847;42.654;23.370;2023-02-28T12:34:29;95175.69;;;12.58;70.37
36932;BME280;22847;42.654;23.370;2023-02-28T12:36:58;94995.22;;;11.76;69.50
36932;BME280;22847;42.654;23.370;2023-02-28T12:39:33;94993.78;;;11.91;68.57
36932;BME280;22847;42.654;23.370;2023-02-28T12:42:29;95175.78;;;12.93;68.88
36932;BME280;22847;42.654;23.370;2023-02-28T12:47:34;95224.25;;;13.25;66.90
36932;BME280;22847;42.654;23.370;2023-02-28T12:50:00;95162.09;;;13.27;66.87
36932;BME280;22847;42.654;23.370;2023-02-28T12:55:27;95165.31;;;12.93;67.64
36932;BME280;22847;42.654;23.370;2023-02-28T13:01:00;95153.69;;;12.78;68.06
36932;BME280;22847;42.654;23.370;2023-02-28T13:03:38;94986.56;;;11.29;69.41
36932;BME280;22847;42.654;23.370;2023-02-28T13:09:08;95205.56;;;12.09;71.21
36932;BME280;22847;42.654;23.370;2023-02-28T13:11:43;95157.16;;;11.95;71.80
36932;BME280;22847;42.654;23.370;2023-02-28T13:14:37;95165.38;;;12.20;70.48
36932;BME280;22847;42.654;23.370;2023-02-28T13:19:44;95163.63;;;11.91;72.44
36932;BME280;22847;42.654;23.370;2023-02-28T13:24:54;95018.47;;;10.75;72.57
36932;BME280;22847;42.654;23.370;2023-02-28T13:27:24;95150.56;;;11.91;71.20
36932;BME280;22847;42.654;23.370;2023-02-28T13:29:51;95128.47;;;11.57;71.42
36932;BME280;22847;42.654;23.370;2023-02-28T13:32:32;95148.44;;;12.24;69.66
36932;BME280;22847;42.654;23.370;2023-02-28T13:42:33;95147.09;;;12.47;68.56
36932;BME280;22847;42.654;23.370;2023-02-28T13:47:29;95137.16;;;12.50;67.74
36932;BME280;22847;42.654;23.370;2023-02-28T13:50:16;94987.72;;;10.69;71.68
36932;BME280;22847;42.654;23.370;2023-02-28T14:03:45;95143.84;;;11.02;74.51
36932;BME280;22847;42.654;23.370;2023-02-28T14:06:29;94600.75;;;7.64;74.90
36932;BME280;22847;42.654;23.370;2023-02-28T14:09:16;95139.03;;;11.36;73.69
36932;BME280;22847;42.654;23.370;2023-02-28T14:11:44;94951.59;;;10.16;73.63
36932;BME280;22847;42.654;23.370;2023-02-28T14:17:08;95037.88;;;10.33;75.43
36932;BME280;22847;42.654;23.370;2023-02-28T14:19:38;95130.50;;;10.86;76.22
36932;BME280;22847;42.654;23.370;2023-02-28T14:30:43;95176.56;;;11.26;74.77
36932;BME280;22847;42.654;23.370;2023-02-28T14:32:58;95158.28;;;11.16;75.35
36932;BME280;22847;42.654;23.370;2023-02-28T14:37:51;95152.28;;;10.66;77.81
36932;BME280;22847;42.654;23.370;2023-02-28T14:40:27;95045.97;;;9.38;79.79
36932;BME280;22847;42.654;23.370;2023-02-28T14:43:06;95160.72;;;10.18;79.54
36932;BME280;22847;42.654;23.370;2023-02-28T14:45:42;94972.81;;;9.11;80.18
36932;BME280;22847;42.654;23.370;2023-02-28T14:48:11;95141.63;;;10.39;79.52
36932;BME280;22847;42.654;23.370;2023-02-28T14:50:37;94960.25;;;9.47;78.57
36932;BME280;22847;42.654;23.370;2023-02-28T14:53:03;94948.81;;;9.59;76.87
36932;BME280;22847;42.654;23.370;2023-02-28T14:55:31;95154.34;;;10.72;77.70
36932;BME280;22847;42.654;23.370;2023-02-28T14:58:04;94946.09;;;9.70;76.38
36932;BME280;22847;42.654;23.370;2023-02-28T15:00:32;95189.47;;;10.68;77.76
36932;BME280;22847;42.654;23.370;2023-02-28T15:03:00;95020.38;;;9.74;78.14
36932;BME280;22847;42.654;23.370;2023-02-28T15:05:34;95006.38;;;9.65;78.42
36932;BME280;22847;42.654;23.370;2023-02-28T15:08:14;95106.09;;;10.07;79.25
36932;BME280;22847;42.654;23.370;2023-02-28T15:10:45;95181.28;;;10.42;79.90
36932;BME280;22847;42.654;23.370;2023-02-28T15:13:13;95142.72;;;10.76;78.08
36932;BME280;22847;42.654;23.370;2023-02-28T15:18:15;95128.56;;;10.79;76.87
36932;BME280;22847;42.654;23.370;2023-02-28T15:20:45;94827.34;;;8.59;77.38
36932;BME280;22847;42.654;23.370;2023-02-28T15:23:11;95145.22;;;10.47;77.05
36932;BME280;22847;42.654;23.370;2023-02-28T15:25:37;94968.09;;;8.95;78.80